Terminal Aerodrome Forecast
Issued by NWS Lake Charles, LA

Home | Current Version | Previous Version | Text Only | Print | Product List | Glossary On
Versions: 1 2 3 4 5 6 7 8 9 10 11 12 13 14 15 16 17 18 19 20
000
FTUS44 KLCH 260733 AAB
TAFLFT
TAF AMD
KLFT 260733Z 2608/2706 22005KT 1/2SM FG VV011
      TEMPO 2609/2613 1/4SM FG VV004
     FM261400 VRB03KT 3SM BR BKN170
     FM261600 18004KT P6SM SCT080 BKN150=

USA.gov is the U.S. government's official web portal to all federal, state and local government web resources and services.